Aérodrome :
LOGIN :

S'inscrire | Disclaimer

   EN    FR    IT 

 










Légende :    VFR   VFR Marginal   IFR   IFR Intensif   IFR Très Intensif
Visi : 
Plafond : 
>= 8 km
>= 3000ft
5 à 8 km
1000 à 3000 ft
1500m à 5 km
500 à 1000 ft
800 à 1500m
200 à 500 ft
< 800m
< 200 ft
Symboles :   Orages  Brouillard  Fortes neiges  Fortes précipitations  Vent > 20 kt
SIGMETs :   Divers  Orages  Givrage  Turbulence  Onde Orograph.  Cendres Volcan.







- Altitude de l'aérodrome : 202 ft
- Code IATA : SQZ


EGXP - RAF Scampton

DERNIER METAR :
  • 152050Z AUTO 16021G32KT 9999 // OVC005/// 02/02 Q0997

METARs EXPIRÉS :
  • 151950Z AUTO 16021G32KT 9999 // BKN005/// 02/02 Q0999
  • 151850Z AUTO 15023G35KT 3500 // OVC005/// 01/01 Q0999

Prévision TAF périmée.
Pas de NOTAMs connus pour ce terrain.
3 SIGMETs publiés pour la FIR London (EGTT) :
 
Onde orographique forte
EGTT SIGMET 15 VALID 152000/152300 EGRR
EGTT LONDON FIR SEV MTW FCST WI N5500 W00128 - N5144 W00236 - N5154 W00504 - N5427 W00341 - N5500 W00434 - N5500 W00128 FL030/250 STNR WKN=
Turbulence forte
EGTT SIGMET 14 VALID 152000/152300 EGRR
EGTT LONDON FIR SEV TURB FCST WI N5220 W00530 - N5500 W00530 - N5500 E00304 - N5318 E00133 - N5011 W00526 - N5212 W00546 - N5220 W00530 SFC/FL060 MOV NE 30KT NC=
Givrage fort
EGTT SIGMET 13 VALID 151830/152230 EGRR
EGTT LONDON FIR SEV ICE FCST WI N5323 E00107 - N5349 W00020 - N5500 W00123 - N5500 W00005 - N5323 E00107 FL030/100 MOV E 15KT NC=



MET'MAP, la Météo Aéronautique d'un coup d'oeil ! - Copyright ORBIFLY Décembre 2007 - Disclaimer

ORBIFLY MET'MAP TEAM :

Programmation & Développement : Alexandra Zaïnal
Conception & Développement : Baudouin d'Aumeries
Co-Programmation & Développement : Marc-Olivier Méhu
Soutien technique & logistique : Manuel Goepfert

Contact : metmap@orbifly.com




SOURCES & CREDITS :

   NOAA